createdAt,value
2023-04-28T00:00:02.663Z,5.10
2023-04-28T00:02:32.064Z,4.77
2023-04-28T00:05:00.117Z,5.03
2023-04-28T00:07:28.141Z,4.50
2023-04-28T00:09:57.092Z,4.07
2023-04-28T00:12:25.152Z,4.33
2023-04-28T00:14:53.053Z,7.27
2023-04-28T00:17:20.981Z,3.67
2023-04-28T00:19:51.480Z,6.67
2023-04-28T00:22:19.435Z,4.87
2023-04-28T00:24:47.401Z,4.57
2023-04-28T00:27:15.326Z,4.67
2023-04-28T00:29:43.248Z,4.80
2023-04-28T00:32:11.229Z,5.30
2023-04-28T00:34:39.202Z,3.37
2023-04-28T00:37:08.509Z,4.17
2023-04-28T00:39:36.857Z,4.60
2023-04-28T00:42:04.870Z,5.30
2023-04-28T00:44:32.804Z,3.80
2023-04-28T00:47:00.944Z,4.37
2023-04-28T00:49:28.856Z,4.80
2023-04-28T00:51:56.780Z,4.97
2023-04-28T00:54:26.069Z,6.97
2023-04-28T00:56:53.973Z,6.33
2023-04-28T00:59:21.863Z,4.57
2023-04-28T01:01:50.129Z,4.70
2023-04-28T01:04:19.123Z,4.13
2023-04-28T01:06:47.470Z,3.63
2023-04-28T01:09:15.478Z,3.90
2023-04-28T01:11:44.756Z,3.90
2023-04-28T01:14:12.694Z,3.47
2023-04-28T01:16:40.957Z,5.13
2023-04-28T01:19:09.775Z,5.70
2023-04-28T01:21:37.721Z,7.80
2023-04-28T01:24:09.168Z,4.37
2023-04-28T01:26:37.084Z,5.43
2023-04-28T01:29:04.973Z,4.83
2023-04-28T01:31:32.914Z,6.13
2023-04-28T01:34:00.832Z,5.83
2023-04-28T01:36:28.744Z,8.27
2023-04-28T01:38:56.792Z,7.07
2023-04-28T01:41:26.322Z,5.63
2023-04-28T01:43:54.202Z,4.30
2023-04-28T01:46:22.157Z,6.17
2023-04-28T01:48:50.106Z,4.27
2023-04-28T01:51:17.984Z,6.13
2023-04-28T01:53:46.000Z,6.63
2023-04-28T01:56:13.891Z,5.10
2023-04-28T01:58:43.227Z,5.93
2023-04-28T02:01:11.541Z,7.27
2023-04-28T02:03:39.592Z,8.70
2023-04-28T02:06:07.745Z,6.57
2023-04-28T02:08:35.663Z,5.90
2023-04-28T02:11:04.032Z,7.50
2023-04-28T02:13:31.946Z,5.70
2023-04-28T02:16:03.274Z,6.37
2023-04-28T02:18:31.434Z,5.97
2023-04-28T02:20:59.349Z,7.33
2023-04-28T02:23:27.241Z,7.10
2023-04-28T02:26:03.684Z,4.93
2023-04-28T02:28:31.636Z,4.27
2023-04-28T02:31:07.277Z,5.80
2023-04-28T02:33:35.287Z,5.20
2023-04-28T02:36:03.869Z,5.23
2023-04-28T02:38:32.214Z,5.47
2023-04-28T02:41:01.036Z,6.27
2023-04-28T02:43:29.266Z,5.83
2023-04-28T02:45:57.207Z,6.03
2023-04-28T02:48:26.977Z,5.77
2023-04-28T02:50:54.962Z,6.67
2023-04-28T02:53:23.564Z,6.37
2023-04-28T02:55:51.479Z,6.67
2023-04-28T02:58:19.447Z,7.70
2023-04-28T03:00:47.493Z,6.13
2023-04-28T03:03:15.677Z,6.30
2023-04-28T03:05:45.051Z,7.73
2023-04-28T03:08:12.985Z,6.03
2023-04-28T03:10:40.907Z,8.33
2023-04-28T03:13:08.781Z,6.20
2023-04-28T03:15:36.787Z,7.97
2023-04-28T03:18:04.831Z,5.90
2023-04-28T03:20:32.724Z,7.27
2023-04-28T03:23:02.720Z,5.30
2023-04-28T03:25:30.686Z,7.97
2023-04-28T03:27:58.590Z,7.10
2023-04-28T03:30:26.505Z,9.17
2023-04-28T03:32:54.552Z,8.03
2023-04-28T03:35:22.521Z,8.30
2023-04-28T03:37:50.528Z,6.00
2023-04-28T03:40:19.897Z,6.93
2023-04-28T03:42:47.935Z,5.37
2023-04-28T03:45:15.940Z,8.93
2023-04-28T03:47:43.908Z,6.00
2023-04-28T03:50:12.249Z,7.23
2023-04-28T03:52:40.164Z,6.07
2023-04-28T03:55:08.731Z,7.87
2023-04-28T03:57:38.037Z,8.67
2023-04-28T04:00:07.076Z,7.47
2023-04-28T04:02:35.079Z,9.40
2023-04-28T04:05:03.247Z,7.83
2023-04-28T04:07:31.384Z,6.97
2023-04-28T04:09:59.692Z,6.33
2023-04-28T04:12:28.055Z,6.73
2023-04-28T04:14:57.317Z,6.83
2023-04-28T04:17:25.332Z,6.23
2023-04-28T04:19:53.268Z,5.40
2023-04-28T04:22:21.168Z,5.50
2023-04-28T04:24:49.121Z,6.37
2023-04-28T04:27:17.012Z,10.83
2023-04-28T04:29:44.875Z,7.80
2023-04-28T04:32:14.254Z,5.67
2023-04-28T04:34:42.135Z,7.30
2023-04-28T04:37:10.511Z,6.13
2023-04-28T04:39:38.408Z,9.03
2023-04-28T04:42:22.642Z,7.03
2023-04-28T04:44:51.675Z,7.53
2023-04-28T04:47:20.940Z,6.40
2023-04-28T04:49:49.585Z,7.10
2023-04-28T04:52:17.579Z,6.40
2023-04-28T04:54:45.592Z,5.60
2023-04-28T04:57:13.590Z,8.37
2023-04-28T04:59:41.582Z,6.63
2023-04-28T05:02:09.855Z,5.07
2023-04-28T05:04:39.253Z,6.50
2023-04-28T05:07:07.397Z,4.57
2023-04-28T05:09:35.333Z,5.23
2023-04-28T05:12:03.314Z,6.70
2023-04-28T05:14:31.255Z,6.10
2023-04-28T05:16:59.391Z,7.93
2023-04-28T05:19:27.499Z,6.67
2023-04-28T05:21:57.030Z,5.07
2023-04-28T05:24:25.160Z,7.00
2023-04-28T05:26:54.172Z,4.77
2023-04-28T05:29:22.581Z,8.03
2023-04-28T05:31:50.528Z,7.97
2023-04-28T05:34:18.705Z,5.97
2023-04-28T05:36:46.981Z,5.70
2023-04-28T05:39:16.304Z,5.60
2023-04-28T05:41:44.243Z,8.87
2023-04-28T05:44:12.190Z,4.87
2023-04-28T05:46:40.233Z,5.13
2023-04-28T05:49:08.154Z,6.30
2023-04-28T05:51:36.033Z,5.97
2023-04-28T05:54:04.170Z,5.37
2023-04-28T05:56:33.495Z,7.87
2023-04-28T05:59:04.245Z,4.80
2023-04-28T06:01:32.272Z,6.73
2023-04-28T06:04:00.832Z,5.67
2023-04-28T06:06:29.334Z,5.10
2023-04-28T06:08:57.261Z,6.97
2023-04-28T06:11:25.283Z,4.83
2023-04-28T06:13:54.646Z,5.63
2023-04-28T06:16:23.554Z,4.20
2023-04-28T06:18:53.956Z,5.03
2023-04-28T06:21:22.306Z,5.90
2023-04-28T06:23:50.376Z,5.10
2023-04-28T06:26:18.667Z,6.70
2023-04-28T06:28:46.963Z,5.23
2023-04-28T06:31:16.935Z,4.03
2023-04-28T06:33:44.836Z,6.00
2023-04-28T06:36:14.054Z,3.50
2023-04-28T06:38:43.143Z,5.30
2023-04-28T06:41:11.421Z,4.40
2023-04-28T06:43:39.449Z,4.90
2023-04-28T06:46:07.516Z,4.43
2023-04-28T06:48:36.781Z,6.10
2023-04-28T06:51:05.749Z,4.37
2023-04-28T06:53:33.740Z,3.73
2023-04-28T06:56:02.833Z,3.60
2023-04-28T06:58:30.861Z,4.83
2023-04-28T07:00:58.876Z,3.37
2023-04-28T07:03:28.034Z,4.50
2023-04-28T07:05:57.491Z,4.57
2023-04-28T07:08:25.998Z,4.33
2023-04-28T07:10:53.905Z,5.10
2023-04-28T07:13:22.115Z,5.47
2023-04-28T07:15:50.103Z,4.13
2023-04-28T07:18:18.065Z,3.97
2023-04-28T07:20:49.161Z,6.43
2023-04-28T07:23:18.508Z,6.83
2023-04-28T07:25:46.543Z,3.53
2023-04-28T07:28:14.820Z,4.57
2023-04-28T07:30:42.727Z,5.30
2023-04-28T07:33:10.903Z,4.80
2023-04-28T07:35:38.847Z,4.27
2023-04-28T07:38:06.816Z,6.33
2023-04-28T07:40:36.276Z,2.80
2023-04-28T07:43:04.551Z,4.00
2023-04-28T07:45:33.013Z,5.27
2023-04-28T07:48:01.301Z,2.33
2023-04-28T07:50:29.312Z,6.40
2023-04-28T07:52:59.977Z,5.77
2023-04-28T07:55:28.035Z,4.50
2023-04-28T07:57:58.802Z,5.63
2023-04-28T08:00:26.885Z,6.03
2023-04-28T08:02:54.977Z,3.23
2023-04-28T08:05:23.193Z,3.47
2023-04-28T08:07:51.208Z,5.90
2023-04-28T08:10:19.211Z,7.90
2023-04-28T08:12:47.438Z,4.03
2023-04-28T08:15:18.455Z,2.60
2023-04-28T08:17:46.577Z,3.13
2023-04-28T08:20:15.626Z,3.10
2023-04-28T08:22:43.543Z,4.17
2023-04-28T08:25:11.917Z,8.20
2023-04-28T08:27:40.485Z,3.87
2023-04-28T08:30:10.085Z,4.43
2023-04-28T08:32:39.444Z,3.10
2023-04-28T08:35:08.644Z,6.73
2023-04-28T08:37:36.952Z,12.93
2023-04-28T08:40:09.709Z,3.53
2023-04-28T08:42:59.575Z,3.80
2023-04-28T08:45:49.484Z,5.43
2023-04-28T08:48:37.634Z,5.23
2023-04-28T08:51:11.193Z,6.83
2023-04-28T08:54:08.790Z,4.00
2023-04-28T08:56:47.810Z,5.67
2023-04-28T08:59:16.121Z,4.50
2023-04-28T09:01:44.106Z,5.87
2023-04-28T09:04:14.324Z,3.50
2023-04-28T09:06:42.791Z,6.97
2023-04-28T09:09:21.180Z,8.00
2023-04-28T09:11:53.012Z,7.93
2023-04-28T09:14:20.903Z,5.40
2023-04-28T09:16:48.871Z,4.97
2023-04-28T09:19:18.268Z,3.63
2023-04-28T09:21:54.614Z,3.80
2023-04-28T09:24:30.499Z,3.63
2023-04-28T09:26:58.723Z,4.90
2023-04-28T09:29:26.982Z,5.80
2023-04-28T09:31:55.285Z,6.37
2023-04-28T09:34:24.768Z,6.33
2023-04-28T09:36:52.960Z,5.50
2023-04-28T09:39:31.714Z,4.90
2023-04-28T09:42:03.471Z,5.60
2023-04-28T09:44:31.482Z,7.17
2023-04-28T09:46:59.441Z,7.67
2023-04-28T09:49:28.755Z,4.43
2023-04-28T09:52:13.588Z,6.37
2023-04-28T09:54:41.921Z,5.20
2023-04-28T09:57:10.303Z,7.03
2023-04-28T09:59:38.555Z,7.33
2023-04-28T10:02:22.646Z,6.53
2023-04-28T10:04:56.403Z,6.03
2023-04-28T10:07:24.411Z,5.90
2023-04-28T10:09:52.452Z,5.43
2023-04-28T10:12:21.848Z,5.13
2023-04-28T10:14:54.337Z,4.47
2023-04-28T10:17:25.477Z,4.40
2023-04-28T10:19:56.464Z,4.37
2023-04-28T10:22:34.695Z,6.73
2023-04-28T10:25:19.071Z,7.97
2023-04-28T10:27:47.751Z,5.10
2023-04-28T10:32:48.406Z,5.47
2023-04-28T10:35:50.906Z,4.90
2023-04-28T10:38:21.494Z,6.10
2023-04-28T10:40:50.085Z,5.17
2023-04-28T10:43:39.921Z,4.77
2023-04-28T10:46:09.250Z,5.27
2023-04-28T10:49:07.163Z,7.63
2023-04-28T10:51:37.677Z,4.63
2023-04-28T10:54:20.446Z,5.67
2023-04-28T10:57:17.139Z,4.93
2023-04-28T10:59:45.065Z,4.93
2023-04-28T11:02:44.741Z,7.27
2023-04-28T11:05:19.090Z,6.13
2023-04-28T11:08:33.374Z,7.73
2023-04-28T11:11:22.821Z,4.97
2023-04-28T11:13:51.720Z,7.77
2023-04-28T11:16:25.035Z,3.80
2023-04-28T11:18:59.244Z,6.40
2023-04-28T11:21:28.440Z,5.97
2023-04-28T11:23:56.714Z,5.90
2023-04-28T11:26:26.388Z,6.93
2023-04-28T11:28:56.040Z,6.60
2023-04-28T11:31:25.997Z,4.17
2023-04-28T11:34:06.263Z,8.00
2023-04-28T11:36:36.700Z,5.30
2023-04-28T11:39:09.143Z,4.37
2023-04-28T11:41:39.974Z,4.20
2023-04-28T11:44:12.063Z,7.33
2023-04-28T11:46:46.829Z,4.93
2023-04-28T11:49:15.757Z,7.17
2023-04-28T11:51:45.978Z,7.73
2023-04-28T11:54:15.154Z,4.33
2023-04-28T11:56:45.054Z,8.23
2023-04-28T11:59:14.192Z,5.67
2023-04-28T12:01:49.698Z,6.43
2023-04-28T12:04:29.062Z,5.13
2023-04-28T12:07:01.246Z,6.73
2023-04-28T12:09:29.237Z,8.10
2023-04-28T12:11:59.758Z,5.43
2023-04-28T12:14:27.735Z,5.13
2023-04-28T12:16:57.082Z,5.03
2023-04-28T12:19:24.957Z,4.10
2023-04-28T12:22:06.570Z,6.70
2023-04-28T12:24:35.897Z,5.50
2023-04-28T12:27:20.341Z,5.93
2023-04-28T12:29:48.818Z,7.50
2023-04-28T12:32:18.647Z,8.40
2023-04-28T12:34:47.618Z,5.93
2023-04-28T12:37:15.578Z,5.87
2023-04-28T12:39:44.255Z,8.17
2023-04-28T12:42:12.336Z,4.63
2023-04-28T12:44:41.620Z,4.37
2023-04-28T12:47:11.090Z,9.03
2023-04-28T12:49:39.386Z,5.17
2023-04-28T12:52:07.922Z,5.33
2023-04-28T12:54:35.850Z,4.10
2023-04-28T12:57:04.196Z,7.60
2023-04-28T12:59:32.755Z,5.57
2023-04-28T13:02:02.660Z,4.43
2023-04-28T13:04:31.335Z,5.43
2023-04-28T13:07:00.026Z,4.40
2023-04-28T13:09:28.372Z,6.10
2023-04-28T13:11:56.318Z,4.63
2023-04-28T13:14:24.254Z,4.97
2023-04-28T13:16:53.438Z,4.77
2023-04-28T13:19:23.138Z,5.57
2023-04-28T13:21:51.255Z,6.33
2023-04-28T13:24:19.206Z,9.83
2023-04-28T13:26:47.351Z,4.07
2023-04-28T13:29:15.491Z,7.20
2023-04-28T13:31:43.535Z,6.73
2023-04-28T13:34:16.080Z,4.80
2023-04-28T13:36:45.716Z,4.00
2023-04-28T13:39:14.838Z,4.37
2023-04-28T13:41:42.957Z,4.43
2023-04-28T13:44:11.010Z,4.87
2023-04-28T13:46:38.986Z,3.17
2023-04-28T13:49:07.357Z,4.70
2023-04-28T13:51:35.356Z,5.80
2023-04-28T13:54:08.188Z,3.67
2023-04-28T13:56:36.877Z,5.50
2023-04-28T13:59:05.054Z,4.70
2023-04-28T14:01:33.042Z,5.90
2023-04-28T14:04:01.293Z,5.20
2023-04-28T14:06:29.432Z,4.80
2023-04-28T14:08:57.673Z,4.73
2023-04-28T14:11:27.224Z,4.90
2023-04-28T14:13:55.191Z,4.47
2023-04-28T14:16:23.246Z,4.73
2023-04-28T14:18:51.860Z,5.73
2023-04-28T14:21:19.780Z,3.53
2023-04-28T14:23:47.719Z,6.07
2023-04-28T14:26:15.674Z,6.80
2023-04-28T14:28:45.218Z,3.77
2023-04-28T14:31:13.282Z,5.40
2023-04-28T14:33:41.654Z,4.60
2023-04-28T14:36:10.290Z,3.60
2023-04-28T14:38:40.030Z,3.73
2023-04-28T14:41:08.247Z,3.53
2023-04-28T14:43:36.374Z,6.63
2023-04-28T14:46:06.164Z,5.03
2023-04-28T14:48:34.255Z,3.33
2023-04-28T14:51:02.806Z,5.57
2023-04-28T14:53:31.966Z,4.63
2023-04-28T14:56:16.767Z,5.37
2023-04-28T14:58:46.319Z,5.90
2023-04-28T15:01:16.052Z,4.83
2023-04-28T15:03:44.894Z,7.10
2023-04-28T15:06:13.283Z,2.97
2023-04-28T15:08:48.276Z,5.63
2023-04-28T15:11:16.362Z,4.93
2023-04-28T15:13:44.308Z,10.13
2023-04-28T15:16:12.296Z,5.57
2023-04-28T15:18:41.654Z,4.70
2023-04-28T15:21:09.652Z,4.00
2023-04-28T15:23:37.607Z,9.53
2023-04-28T15:26:08.580Z,5.60
2023-04-28T15:28:37.141Z,3.53
2023-04-28T15:31:05.399Z,7.57
2023-04-28T15:33:33.675Z,4.17
2023-04-28T15:36:03.658Z,7.87
2023-04-28T15:38:32.037Z,5.13
2023-04-28T15:40:59.930Z,4.77
2023-04-28T15:43:28.237Z,4.93
2023-04-28T15:45:56.236Z,5.80
2023-04-28T15:48:24.299Z,6.33
2023-04-28T15:50:52.212Z,7.60
2023-04-28T15:53:22.481Z,7.27
2023-04-28T15:55:50.786Z,7.53
2023-04-28T15:58:18.701Z,4.00
2023-04-28T16:00:47.079Z,4.60
2023-04-28T16:03:15.130Z,5.10
2023-04-28T16:05:43.197Z,5.77
2023-04-28T16:08:11.135Z,4.97
2023-04-28T16:10:42.380Z,6.70
2023-04-28T16:13:12.325Z,5.80
2023-04-28T16:15:41.800Z,3.17
2023-04-28T16:18:10.163Z,7.17
2023-04-28T16:20:38.291Z,5.43
2023-04-28T16:23:06.906Z,7.10
2023-04-28T16:25:35.381Z,5.40
2023-04-28T16:28:04.778Z,4.83
2023-04-28T16:30:33.630Z,6.60
2023-04-28T16:33:01.559Z,4.20
2023-04-28T16:35:29.985Z,6.57
2023-04-28T16:37:58.042Z,6.40
2023-04-28T16:40:28.891Z,8.13
2023-04-28T16:42:57.522Z,9.80
2023-04-28T16:45:26.891Z,5.53
2023-04-28T16:47:54.793Z,6.70
2023-04-28T16:50:22.713Z,4.33
2023-04-28T16:52:50.584Z,3.20
2023-04-28T16:55:18.886Z,4.10
2023-04-28T16:57:47.121Z,4.63
2023-04-28T17:00:16.037Z,4.07
2023-04-28T17:02:45.572Z,3.63
2023-04-28T17:05:13.949Z,3.57
2023-04-28T17:07:41.961Z,5.07
2023-04-28T17:10:11.065Z,5.93
2023-04-28T17:12:39.505Z,5.30
2023-04-28T17:15:09.496Z,7.23
2023-04-28T17:17:37.483Z,6.47
2023-04-28T17:20:08.177Z,9.70
2023-04-28T17:22:36.445Z,4.80
2023-04-28T17:25:05.148Z,4.13
2023-04-28T17:27:33.077Z,4.80
2023-04-28T17:30:00.983Z,5.90
2023-04-28T17:32:30.952Z,5.17
2023-04-28T17:34:59.016Z,4.77
2023-04-28T17:37:28.438Z,4.57
2023-04-28T17:39:56.947Z,6.10
2023-04-28T17:42:24.883Z,5.13
2023-04-28T17:44:53.326Z,5.13
2023-04-28T17:47:21.363Z,7.43
2023-04-28T17:49:49.253Z,7.53
2023-04-28T17:52:17.154Z,5.93
2023-04-28T17:54:46.429Z,4.43
2023-04-28T17:57:14.522Z,8.50
2023-04-28T17:59:42.691Z,9.47
2023-04-28T18:02:11.282Z,4.97
2023-04-28T18:04:39.433Z,4.50
2023-04-28T18:07:07.972Z,12.90
2023-04-28T18:09:35.969Z,4.63
2023-04-28T18:12:05.642Z,5.27
2023-04-28T18:14:33.666Z,6.90
2023-04-28T18:17:01.568Z,6.03
2023-04-28T18:19:30.941Z,6.03
2023-04-28T18:21:58.965Z,5.17
2023-04-28T18:24:26.856Z,8.47
2023-04-28T18:26:54.764Z,5.60
2023-04-28T18:29:24.033Z,6.40
2023-04-28T18:31:52.130Z,7.57
2023-04-28T18:34:20.100Z,6.60
2023-04-28T18:36:48.018Z,5.73
2023-04-28T18:39:15.911Z,6.47
2023-04-28T18:41:43.854Z,6.77
2023-04-28T18:44:11.746Z,7.33
2023-04-28T18:46:41.293Z,6.17
2023-04-28T18:49:09.702Z,6.70
2023-04-28T18:51:38.658Z,11.63
2023-04-28T18:54:07.217Z,13.73
2023-04-28T18:56:35.167Z,7.97
2023-04-28T18:59:04.231Z,11.17
2023-04-28T19:01:32.317Z,14.07
2023-04-28T19:04:24.737Z,9.80
2023-04-28T19:06:52.893Z,7.00
2023-04-28T19:09:21.290Z,8.30
2023-04-28T19:11:49.243Z,14.07
2023-04-28T19:14:17.819Z,13.27
2023-04-28T19:16:45.766Z,10.73
2023-04-28T19:19:15.106Z,13.30
2023-04-28T19:21:44.600Z,10.73
2023-04-28T19:24:12.762Z,8.97
2023-04-28T19:26:41.285Z,7.33
2023-04-28T19:29:09.206Z,7.07
2023-04-28T19:31:37.113Z,8.63
2023-04-28T19:34:05.065Z,7.77
2023-04-28T19:36:34.506Z,8.10
2023-04-28T19:39:02.416Z,8.60
2023-04-28T19:41:30.651Z,8.43
2023-04-28T19:43:58.553Z,8.57
2023-04-28T19:46:26.466Z,12.30
2023-04-28T19:48:54.383Z,8.60
2023-04-28T19:51:22.250Z,11.50
2023-04-28T19:53:52.473Z,7.07
2023-04-28T19:56:20.422Z,7.90
2023-04-28T19:58:48.709Z,10.60
2023-04-28T20:01:16.695Z,7.40
2023-04-28T20:03:45.021Z,10.60
2023-04-28T20:06:17.548Z,9.00
2023-04-28T20:08:45.807Z,12.93
2023-04-28T20:11:15.187Z,9.00
2023-04-28T20:13:43.125Z,15.77
2023-04-28T20:16:11.045Z,8.50
2023-04-28T20:18:38.959Z,10.10
2023-04-28T20:21:06.946Z,14.23
2023-04-28T20:23:34.977Z,10.63
2023-04-28T20:26:03.506Z,12.93
2023-04-28T20:28:32.783Z,9.40
2023-04-28T20:31:00.837Z,10.33
2023-04-28T20:33:28.804Z,11.33
2023-04-28T20:35:56.696Z,12.77
2023-04-28T20:38:24.584Z,9.80
2023-04-28T20:40:52.541Z,10.43
2023-04-28T20:43:20.939Z,9.10
2023-04-28T20:45:50.215Z,11.63
2023-04-28T20:48:19.494Z,10.40
2023-04-28T20:50:48.751Z,12.03
2023-04-28T20:53:16.640Z,11.77
2023-04-28T20:55:44.558Z,13.17
2023-04-28T20:58:12.542Z,13.67
2023-04-28T21:00:41.125Z,11.03
2023-04-28T21:03:15.580Z,12.17
2023-04-28T21:05:44.930Z,14.83
2023-04-28T21:08:12.893Z,13.50
2023-04-28T21:10:40.832Z,12.83
2023-04-28T21:13:09.666Z,14.67
2023-04-28T21:15:37.924Z,13.63
2023-04-28T21:18:05.929Z,12.80
2023-04-28T21:20:35.746Z,12.40
2023-04-28T21:23:04.254Z,10.07
2023-04-28T21:25:32.195Z,12.03
2023-04-28T21:28:01.676Z,16.37
2023-04-28T21:30:30.019Z,11.57
2023-04-28T21:32:57.975Z,12.60
2023-04-28T21:35:25.908Z,11.43
2023-04-28T21:37:55.205Z,12.90
2023-04-28T21:40:23.195Z,13.67
2023-04-28T21:42:51.065Z,12.23
2023-04-28T21:45:19.117Z,12.60
2023-04-28T21:47:47.293Z,10.07
2023-04-28T21:50:15.265Z,10.57
2023-04-28T21:52:43.223Z,12.70
2023-04-28T21:55:12.649Z,10.67
2023-04-28T21:57:40.571Z,10.37
2023-04-28T22:00:12.637Z,11.77
2023-04-28T22:02:41.312Z,8.50
2023-04-28T22:05:10.550Z,10.20
2023-04-28T22:07:38.743Z,8.23
2023-04-28T22:10:08.120Z,11.27
2023-04-28T22:12:37.445Z,10.13
2023-04-28T22:15:06.102Z,10.73
2023-04-28T22:17:34.090Z,10.10
2023-04-28T22:20:02.051Z,10.13
2023-04-28T22:22:31.029Z,9.97
2023-04-28T22:24:59.346Z,10.23
2023-04-28T22:27:27.521Z,8.53
2023-04-28T22:29:58.631Z,11.90
2023-04-28T22:32:26.887Z,7.93
2023-04-28T22:34:55.243Z,10.43
2023-04-28T22:37:23.159Z,10.30
2023-04-28T22:39:51.456Z,10.50
2023-04-28T22:42:19.645Z,11.47
2023-04-28T22:44:47.565Z,9.87
2023-04-28T22:47:17.220Z,9.10
2023-04-28T22:49:45.132Z,8.57
2023-04-28T22:52:13.024Z,10.87
2023-04-28T22:54:40.924Z,11.53
2023-04-28T22:57:09.081Z,8.40
2023-04-28T22:59:37.163Z,10.50
2023-04-28T23:02:05.110Z,8.37
2023-04-28T23:04:34.724Z,9.47
2023-04-28T23:07:02.745Z,10.73
2023-04-28T23:09:33.749Z,10.40
2023-04-28T23:12:03.021Z,9.37
2023-04-28T23:14:31.064Z,11.47
2023-04-28T23:16:59.252Z,8.40
2023-04-28T23:19:27.222Z,8.40
2023-04-28T23:21:56.690Z,8.73
2023-04-28T23:24:24.585Z,9.07
2023-04-28T23:26:52.506Z,8.60
2023-04-28T23:29:20.400Z,9.13
2023-04-28T23:31:52.649Z,8.03
2023-04-28T23:34:21.445Z,10.07
2023-04-28T23:36:49.364Z,10.27
2023-04-28T23:39:19.240Z,9.40
2023-04-28T23:41:47.145Z,8.37
2023-04-28T23:44:15.295Z,7.20
2023-04-28T23:46:43.182Z,7.67
2023-04-28T23:49:11.463Z,6.63
2023-04-28T23:51:41.013Z,7.70
2023-04-28T23:54:09.306Z,6.50
2023-04-28T23:56:38.687Z,7.77
2023-04-28T23:59:39.738Z,7.33
